Time;durP1;ratioP1;P1;durP2;ratioP2;P2;SDS_P1;SDS_P2;PMS_P1;PMS_P2;Temp;Humidity;BMP_temperature;BMP_pressure;BME280_temperature;BME280_humidity;BME280_pressure;Samples;Min_cycle;Max_cycle;Signal;HPM_P1;HPM_P2
2021/12/22 00:02:21;;;;;;;43.38;22.35;;;;;;;-2.80;100.00;102100.06;7403478;19;20123;-47
2021/12/22 00:04:51;;;;;;;39.17;21.25;;;;;;;-2.79;100.00;102096.81;7399011;19;20242;-44
2021/12/22 00:07:23;;;;;;;39.53;20.40;;;;;;;-2.84;100.00;102098.81;7403755;19;20167;-44
2021/12/22 00:09:52;;;;;;;36.65;19.73;;;;;;;-2.89;100.00;102100.81;7398244;19;20249;-44
2021/12/22 00:12:21;;;;;;;35.55;18.95;;;;;;;-2.83;100.00;102102.25;7405264;19;20422;-43
2021/12/22 00:14:51;;;;;;;35.90;19.67;;;;;;;-2.86;100.00;102096.09;7398779;19;20265;-44
2021/12/22 00:17:20;;;;;;;37.97;19.30;;;;;;;-2.83;100.00;102084.56;7403177;19;20161;-48
2021/12/22 00:19:50;;;;;;;38.33;20.45;;;;;;;-2.84;100.00;102083.66;7398489;19;20580;-43
2021/12/22 00:22:19;;;;;;;37.53;19.40;;;;;;;-2.98;100.00;102089.59;7403091;19;20174;-43
2021/12/22 00:24:51;;;;;;;34.55;19.40;;;;;;;-3.04;100.00;102088.88;7397671;19;20193;-47
2021/12/22 00:27:21;;;;;;;41.20;21.30;;;;;;;-3.16;100.00;102081.69;7402867;19;20549;-46
2021/12/22 00:29:52;;;;;;;43.70;20.00;;;;;;;-3.18;100.00;102089.78;7396925;19;20190;-47
2021/12/22 00:32:22;;;;;;;39.45;20.58;;;;;;;-3.21;100.00;102090.34;7404530;19;20123;-47
2021/12/22 00:34:55;;;;;;;39.42;19.92;;;;;;;-3.20;100.00;102098.78;7397722;19;20197;-44
2021/12/22 00:37:26;;;;;;;53.33;22.50;;;;;;;-3.19;100.00;102101.50;7403104;19;20158;-48
2021/12/22 00:39:59;;;;;;;37.15;21.10;;;;;;;-3.22;100.00;102101.16;7397452;19;20190;-46
2021/12/22 00:42:29;;;;;;;38.08;21.38;;;;;;;-3.24;100.00;102102.56;7402689;19;20119;-44
2021/12/22 00:44:58;;;;;;;34.55;19.30;;;;;;;-3.37;100.00;102107.81;7397349;19;20194;-47
2021/12/22 00:47:30;;;;;;;46.00;22.30;;;;;;;-3.31;100.00;102108.53;7402009;19;20545;-44
2021/12/22 00:50:01;;;;;;;35.60;19.00;;;;;;;-3.42;100.00;102112.31;7395879;19;20209;-44
2021/12/22 00:52:31;;;;;;;44.30;21.02;;;;;;;-3.37;100.00;102112.84;7404406;19;20119;-45
2021/12/22 00:55:03;;;;;;;38.78;20.98;;;;;;;-3.39;100.00;102114.28;7396788;19;20246;-45
2021/12/22 00:57:33;;;;;;;35.60;19.08;;;;;;;-3.48;100.00;102115.72;7401615;19;20161;-44
2021/12/22 01:00:03;;;;;;;40.75;20.98;;;;;;;-3.52;100.00;102119.47;7396672;19;20189;-44
2021/12/22 01:02:33;;;;;;;37.60;19.60;;;;;;;-3.53;100.00;102118.56;7401914;19;20119;-43
2021/12/22 01:05:03;;;;;;;39.63;20.58;;;;;;;-3.56;100.00;102109.72;7396476;19;20190;-43
2021/12/22 01:07:32;;;;;;;33.35;18.55;;;;;;;-3.58;100.00;102111.19;7401151;19;20159;-43
2021/12/22 01:10:24;;;;;;;37.00;18.73;;;;;;;-3.60;100.00;102116.03;7395766;19;20437;-45
2021/12/22 01:12:55;;;;;;;34.45;18.75;;;;;;;-3.57;100.00;102113.91;7403216;19;20129;-45
2021/12/22 01:15:26;;;;;;;40.70;19.25;;;;;;;-3.67;100.00;102119.44;7395683;19;20194;-43
2021/12/22 01:18:01;;;;;;;33.67;18.60;;;;;;;-3.60;100.00;102120.19;7401510;19;20207;-46
2021/12/22 01:20:36;;;;;;;36.42;19.85;;;;;;;-3.60;100.00;102116.03;7396220;19;20186;-48
2021/12/22 01:23:07;;;;;;;40.38;19.85;;;;;;;-3.56;100.00;102109.72;7400990;19;20182;-43
2021/12/22 01:25:43;;;;;;;40.70;19.77;;;;;;;-3.53;100.00;102111.00;7395491;19;20186;-43
2021/12/22 01:28:14;;;;;;;149.02;58.00;;;;;;;-3.54;100.00;102115.88;7400901;19;20162;-44
2021/12/22 01:30:46;;;;;;;38.67;20.08;;;;;;;-3.64;100.00;102115.47;7396025;19;20275;-43
2021/12/22 01:33:17;;;;;;;41.17;21.38;;;;;;;-3.60;100.00;102122.72;7402398;19;20228;-48
2021/12/22 01:35:47;;;;;;;42.83;21.23;;;;;;;-3.66;100.00;102113.69;7395013;19;20190;-44
2021/12/22 01:38:17;;;;;;;38.80;19.40;;;;;;;-3.71;100.00;102113.81;7401765;19;20158;-44
2021/12/22 01:40:50;;;;;;;38.22;19.90;;;;;;;-3.11;100.00;102102.41;7395576;19;20186;-43
2021/12/22 01:43:20;;;;;;;44.58;22.70;;;;;;;-3.22;100.00;102108.72;7400810;19;20190;-44
2021/12/22 01:45:57;;;;;;;33.85;17.42;;;;;;;-3.44;100.00;102110.31;7394859;19;20463;-44
2021/12/22 01:51:27;;;;;;;35.58;17.95;;;;;;;-3.72;100.00;102115.47;7395547;19;20182;-46
2021/12/22 01:54:01;;;;;;;35.70;17.90;;;;;;;-3.75;100.00;102115.06;7401760;19;20126;-43
2021/12/22 01:56:35;;;;;;;39.72;19.58;;;;;;;-3.86;100.00;102118.81;7394302;19;20194;-44
2021/12/22 01:59:07;;;;;;;31.10;16.85;;;;;;;-3.87;100.00;102122.06;7401880;19;20256;-43
2021/12/22 02:01:38;;;;;;;34.38;18.15;;;;;;;-3.82;100.00;102110.94;7393026;19;20250;-46
2021/12/22 02:04:12;;;;;;;36.15;17.55;;;;;;;-3.82;100.00;102110.94;7401473;19;20397;-44
2021/12/22 02:06:42;;;;;;;40.13;19.02;;;;;;;-3.83;100.00;102106.59;7397476;19;20185;-45
2021/12/22 02:09:29;;;;;;;35.08;16.88;;;;;;;-3.88;100.00;102109.25;7393207;19;20163;-45
2021/12/22 02:12:01;;;;;;;39.70;18.15;;;;;;;-3.86;100.00;102105.31;7400771;19;20187;-43
2021/12/22 02:14:30;;;;;;;32.20;16.83;;;;;;;-4.01;100.00;102107.78;7395561;19;20538;-46
2021/12/22 02:17:02;;;;;;;33.42;17.40;;;;;;;-3.94;100.00;102107.78;7399619;19;20165;-43
2021/12/22 02:19:31;;;;;;;32.83;16.83;;;;;;;-3.86;100.00;102106.22;7394974;19;20130;-42
2021/12/22 02:22:08;;;;;;;32.92;16.80;;;;;;;-3.68;100.00;102111.69;7400192;19;20190;-44
2021/12/22 02:24:38;;;;;;;36.92;17.52;;;;;;;-3.85;100.00;102105.50;7394716;19;20209;-49
2021/12/22 02:27:14;;;;;;;36.42;17.48;;;;;;;-3.45;100.00;102105.97;7398884;19;20155;-44
2021/12/22 02:29:47;;;;;;;33.38;16.63;;;;;;;-3.52;100.00;102114.44;7395694;19;20184;-45
2021/12/22 02:32:35;;;;;;;32.13;15.70;;;;;;;-3.81;100.00;102111.81;7400746;19;20182;-43
2021/12/22 02:35:06;;;;;;;31.05;16.10;;;;;;;-4.15;100.00;102112.75;7394142;19;20254;-45
2021/12/22 02:37:43;;;;;;;33.17;16.60;;;;;;;-4.18;100.00;102110.75;7398859;19;20154;-43
2021/12/22 02:40:17;;;;;;;30.92;14.93;;;;;;;-4.24;100.00;102117.56;7393267;19;20193;-43
2021/12/22 02:42:52;;;;;;;36.30;17.17;;;;;;;-4.13;100.00;102113.84;7399830;19;20130;-42
2021/12/22 02:45:23;;;;;;;29.75;15.65;;;;;;;-3.60;100.00;102107.56;7393782;19;20186;-43
2021/12/22 02:47:54;;;;;;;36.70;16.90;;;;;;;-3.49;100.00;102114.78;7398981;19;20155;-42
2021/12/22 02:50:23;;;;;;;32.25;15.80;;;;;;;-3.35;100.00;102110.53;7393792;19;20193;-44
2021/12/22 02:53:04;;;;;;;39.20;16.83;;;;;;;-2.76;100.00;102102.25;7400194;19;20399;-42
2021/12/22 02:55:44;;;;;;;28.83;14.93;;;;;;;-2.33;100.00;102104.69;7392655;19;20194;-43
2021/12/22 02:58:21;;;;;;;32.00;15.55;;;;;;;-2.09;100.00;102102.28;7398547;19;20203;-48
2021/12/22 03:01:05;;;;;;;38.92;16.83;;;;;;;-2.26;100.00;102108.81;7393019;19;20181;-45
2021/12/22 03:03:49;;;;;;;27.00;15.20;;;;;;;-2.74;100.00;102115.94;7398685;19;20513;-45
2021/12/22 03:06:26;;;;;;;38.53;20.63;;;;;;;-3.23;100.00;102121.16;7392615;19;20192;-44
2021/12/22 03:08:58;;;;;;;31.05;14.60;;;;;;;-2.76;100.00;102118.28;7399165;19;20121;-44
2021/12/22 03:11:28;;;;;;;29.85;14.25;;;;;;;-2.42;100.00;102111.19;7392640;19;20246;-43
2021/12/22 03:13:57;;;;;;;27.42;13.48;;;;;;;-2.45;100.00;102120.97;7399034;19;20521;-45
2021/12/22 03:16:27;;;;;;;25.40;13.68;;;;;;;-2.25;100.00;102120.72;7391818;19;20462;-44
2021/12/22 03:18:56;;;;;;;25.08;14.00;;;;;;;-2.43;100.00;102121.16;7399354;19;20123;-43
2021/12/22 03:21:26;;;;;;;22.85;13.68;;;;;;;-3.10;100.00;102128.56;7392477;19;20249;-42
2021/12/22 03:23:58;;;;;;;30.73;13.40;;;;;;;-3.48;100.00;102126.72;7397635;19;20144;-43
2021/12/22 03:26:29;;;;;;;23.40;11.93;;;;;;;-3.12;100.00;102125.88;7391951;19;20186;-45
2021/12/22 03:28:58;;;;;;;28.05;13.10;;;;;;;-2.75;100.00;102130.22;7399171;19;20133;-44
2021/12/22 03:31:28;;;;;;;24.02;12.68;;;;;;;-2.86;100.00;102134.00;7392489;19;20178;-44
2021/12/22 03:33:57;;;;;;;25.95;12.30;;;;;;;-2.74;100.00;102131.09;7398518;19;20524;-43
2021/12/22 03:36:27;;;;;;;23.02;11.75;;;;;;;-2.45;100.00;102126.03;7391420;19;20453;-44
2021/12/22 03:38:59;;;;;;;22.65;11.90;;;;;;;-2.53;100.00;102135.25;7398919;19;20129;-43
2021/12/22 03:41:29;;;;;;;21.48;10.98;;;;;;;-2.49;100.00;102123.84;7392244;19;20197;-42
2021/12/22 03:43:59;;;;;;;22.65;11.70;;;;;;;-2.64;100.00;102128.94;7397276;19;20123;-45
2021/12/22 03:46:28;;;;;;;24.08;11.65;;;;;;;-2.73;100.00;102133.81;7391356;19;20182;-42
2021/12/22 03:48:58;;;;;;;20.65;10.90;;;;;;;-2.72;100.00;102129.69;7398650;19;20144;-44
2021/12/22 03:51:28;;;;;;;20.30;11.23;;;;;;;-2.55;100.00;102119.00;7391680;19;20203;-45
2021/12/22 03:54:00;;;;;;;26.67;12.27;;;;;;;-2.67;100.00;102128.56;7398127;19;20134;-44
2021/12/22 03:56:29;;;;;;;26.52;11.20;;;;;;;-2.96;100.00;102127.69;7391501;19;20526;-43
2021/12/22 03:58:59;;;;;;;23.75;12.20;;;;;;;-2.94;100.00;102137.25;7398324;19;20702;-43
2021/12/22 04:01:29;;;;;;;23.63;11.52;;;;;;;-3.03;100.00;102132.00;7392136;19;20182;-45
2021/12/22 04:04:03;;;;;;;22.88;11.65;;;;;;;-3.20;100.00;102136.66;7396800;19;20155;-44
2021/12/22 04:06:34;;;;;;;22.75;11.45;;;;;;;-3.21;100.00;102128.22;7390512;19;20199;-43
2021/12/22 04:09:06;;;;;;;23.33;11.10;;;;;;;-2.95;100.00;102120.28;7397694;19;20133;-43
2021/12/22 04:11:36;;;;;;;23.98;12.48;;;;;;;-3.00;100.00;102131.47;7391157;19;20241;-44
2021/12/22 04:14:06;;;;;;;20.88;11.20;;;;;;;-2.84;100.00;102129.13;7397651;19;20119;-42
2021/12/22 04:16:36;;;;;;;26.60;12.10;;;;;;;-3.00;100.00;102128.94;7393904;19;20183;-47
2021/12/22 04:19:06;;;;;;;20.08;11.60;;;;;;;-2.75;100.00;102129.31;7397857;19;20549;-45
2021/12/22 04:21:36;;;;;;;20.98;10.98;;;;;;;-2.90;100.00;102124.25;7390606;19;20234;-44
2021/12/22 04:24:08;;;;;;;24.50;11.75;;;;;;;-3.03;100.00;102134.53;7397862;19;20138;-42
2021/12/22 04:26:39;;;;;;;22.92;11.45;;;;;;;-2.75;100.00;102124.25;7397371;19;20194;-46
2021/12/22 04:29:10;;;;;;;20.98;10.70;;;;;;;-2.81;100.00;102118.47;7404924;19;20119;-47
2021/12/22 04:31:39;;;;;;;20.35;11.48;;;;;;;-2.77;100.00;102115.59;7398148;19;20581;-43
2021/12/22 04:34:10;;;;;;;18.60;10.43;;;;;;;-3.51;100.00;102131.38;7404396;19;20127;-44
2021/12/22 04:36:39;;;;;;;22.33;10.80;;;;;;;-3.39;100.00;102120.22;7399922;19;20186;-48
2021/12/22 04:39:13;;;;;;;21.00;10.50;;;;;;;-3.05;100.00;102117.38;7404505;19;20202;-44
2021/12/22 04:41:42;;;;;;;19.50;9.85;;;;;;;-3.25;100.00;102120.97;7399240;19;20178;-45
2021/12/22 04:44:12;;;;;;;21.48;10.75;;;;;;;-3.14;100.00;102120.63;7403740;19;20144;-46
2021/12/22 04:46:42;;;;;;;20.73;10.77;;;;;;;-3.21;100.00;102117.19;7395925;19;20577;-45
2021/12/22 04:49:12;;;;;;;22.10;11.52;;;;;;;-3.25;100.00;102118.44;7404198;19;20123;-46
2021/12/22 04:51:48;;;;;;;24.52;11.27;;;;;;;-2.87;100.00;102121.19;7397502;19;20192;-44
2021/12/22 04:54:32;;;;;;;21.27;10.43;;;;;;;-2.84;100.00;102119.03;7397705;19;20182;-47
2021/12/22 04:57:01;;;;;;;20.45;10.40;;;;;;;-2.90;100.00;102118.28;7402100;19;20174;-45
2021/12/22 04:59:31;;;;;;;23.92;10.02;;;;;;;-3.31;100.00;102111.06;7397800;19;20539;-44
2021/12/22 05:02:00;;;;;;;21.90;11.00;;;;;;;-3.49;100.00;102122.34;7402778;19;20199;-46
2021/12/22 05:04:30;;;;;;;23.42;11.45;;;;;;;-3.88;100.00;102121.88;7396733;19;20218;-44
2021/12/22 05:06:59;;;;;;;23.52;11.73;;;;;;;-3.87;100.00;102116.13;7401934;19;20172;-46
2021/12/22 05:09:31;;;;;;;22.02;10.85;;;;;;;-3.63;100.00;102109.72;7396393;19;20183;-45
2021/12/22 05:12:01;;;;;;;21.65;10.02;;;;;;;-3.43;100.00;102107.94;7402655;19;20816;-45
2021/12/22 05:14:30;;;;;;;23.30;10.95;;;;;;;-3.34;100.00;102112.31;7397271;19;20123;-44
2021/12/22 05:17:03;;;;;;;21.63;10.15;;;;;;;-3.71;100.00;102113.81;7401583;19;20158;-42
2021/12/22 05:19:33;;;;;;;20.05;10.43;;;;;;;-3.63;100.00;102112.25;7397342;19;20146;-48
2021/12/22 05:22:02;;;;;;;20.33;10.65;;;;;;;-3.66;100.00;102108.63;7402983;19;20123;-44
2021/12/22 05:24:34;;;;;;;20.92;11.00;;;;;;;-3.72;100.00;102112.94;7396121;19;20130;-43
2021/12/22 05:27:07;;;;;;;20.70;11.30;;;;;;;-3.76;100.00;102105.72;7401607;19;20162;-46
2021/12/22 05:29:36;;;;;;;26.85;11.65;;;;;;;-3.62;100.00;102109.91;7397502;19;20123;-43
2021/12/22 05:32:07;;;;;;;24.20;11.20;;;;;;;-3.71;100.00;102108.78;7402507;19;20119;-43
2021/12/22 05:34:36;;;;;;;25.52;10.88;;;;;;;-3.56;100.00;102104.69;7396168;19;20150;-43
2021/12/22 05:37:06;;;;;;;24.52;11.32;;;;;;;-3.54;100.00;102108.31;7401311;19;20155;-42
2021/12/22 05:39:38;;;;;;;21.75;11.77;;;;;;;-3.47;100.00;102112.47;7396150;19;20130;-47
2021/12/22 05:42:08;;;;;;;20.65;10.18;;;;;;;-3.33;100.00;102111.59;7402250;19;20174;-44
2021/12/22 05:44:38;;;;;;;22.95;11.25;;;;;;;-3.30;100.00;102105.28;7396287;19;20210;-47
2021/12/22 05:47:07;;;;;;;19.90;10.63;;;;;;;-3.21;100.00;102110.53;7401549;19;20158;-44
2021/12/22 05:49:37;;;;;;;19.80;10.15;;;;;;;-3.80;100.00;102109.47;7396185;19;20731;-44
2021/12/22 05:52:07;;;;;;;22.42;10.90;;;;;;;-3.66;100.00;102113.69;7401916;19;20134;-44
2021/12/22 05:54:39;;;;;;;23.42;11.50;;;;;;;-3.75;100.00;102116.72;7395440;19;20187;-43
2021/12/22 05:57:09;;;;;;;33.92;15.90;;;;;;;-3.31;100.00;102112.66;7400774;19;20227;-44
2021/12/22 05:59:38;;;;;;;58.25;25.95;;;;;;;-2.97;100.00;102111.63;7395269;19;20218;-47
2021/12/22 06:02:07;;;;;;;35.90;17.10;;;;;;;-3.29;100.00;102109.59;7401417;19;20391;-45
2021/12/22 06:04:37;;;;;;;35.30;16.30;;;;;;;-3.20;100.00;102112.34;7395116;19;20661;-46
2021/12/22 06:07:07;;;;;;;23.00;12.13;;;;;;;-3.32;100.00;102110.88;7400312;19;20211;-44
2021/12/22 06:09:39;;;;;;;35.85;16.27;;;;;;;-3.28;100.00;102108.00;7394693;19;20528;-48
2021/12/22 06:12:09;;;;;;;23.60;12.27;;;;;;;-3.44;100.00;102115.38;7401167;19;20175;-45
2021/12/22 06:14:38;;;;;;;30.30;15.30;;;;;;;-3.50;100.00;102117.16;7398215;19;20183;-47
2021/12/22 06:17:08;;;;;;;27.08;13.55;;;;;;;-3.36;100.00;102106.16;7399969;19;20214;-47
2021/12/22 06:19:37;;;;;;;25.98;12.95;;;;;;;-3.10;100.00;102108.34;7395000;19;20231;-47
2021/12/22 06:22:07;;;;;;;25.73;13.38;;;;;;;-3.02;100.00;102105.13;7400655;19;20122;-48
2021/12/22 06:24:39;;;;;;;24.63;12.65;;;;;;;-3.33;100.00;102104.03;7395028;19;20118;-44
2021/12/22 06:27:08;;;;;;;24.17;11.45;;;;;;;-3.54;100.00;102099.09;7400227;19;20165;-42
2021/12/22 06:29:38;;;;;;;21.08;9.80;;;;;;;-3.52;100.00;102099.28;7394714;19;20270;-43
2021/12/22 06:32:09;;;;;;;28.98;12.65;;;;;;;-3.67;100.00;102101.78;7400631;19;20123;-43
2021/12/22 06:34:38;;;;;;;27.98;12.40;;;;;;;-3.29;100.00;102107.09;7394606;19;20216;-44
2021/12/22 06:37:08;;;;;;;25.95;11.90;;;;;;;-3.31;100.00;102106.00;7404221;19;20166;-45
2021/12/22 06:39:41;;;;;;;26.17;12.02;;;;;;;-3.30;100.00;102101.84;7394639;19;20132;-46
2021/12/22 06:42:11;;;;;;;24.17;11.63;;;;;;;-3.46;100.00;102109.22;7400295;19;20126;-44
2021/12/22 06:44:41;;;;;;;25.75;12.73;;;;;;;-3.69;100.00;102107.38;7393705;19;20577;-42
2021/12/22 06:47:10;;;;;;;21.92;10.63;;;;;;;-3.89;100.00;102097.38;7397606;19;20218;-45
2021/12/22 06:49:40;;;;;;;20.38;10.40;;;;;;;-3.91;100.00;102098.81;7393713;19;20182;-44
2021/12/22 06:52:10;;;;;;;21.65;10.55;;;;;;;-3.94;100.00;102095.19;7399984;19;20179;-46
2021/12/22 06:54:42;;;;;;;28.08;11.77;;;;;;;-3.89;100.00;102090.72;7394052;19;20186;-41
2021/12/22 06:57:14;;;;;;;22.60;10.60;;;;;;;-3.88;100.00;102099.19;7398633;19;20222;-44
2021/12/22 06:59:43;;;;;;;20.63;9.95;;;;;;;-3.97;100.00;102099.88;7392961;19;20234;-42
2021/12/22 07:02:13;;;;;;;25.17;11.85;;;;;;;-4.07;100.00;102094.41;7399417;19;20175;-45
2021/12/22 07:04:43;;;;;;;24.58;11.25;;;;;;;-4.17;100.00;102087.34;7392732;19;20190;-44
2021/12/22 07:07:12;;;;;;;20.48;11.00;;;;;;;-4.53;100.00;102093.09;7398359;19;20214;-45
2021/12/22 07:09:47;;;;;;;25.02;11.50;;;;;;;-4.77;100.00;102094.38;7393125;19;20214;-44
2021/12/22 07:12:16;;;;;;;24.15;11.07;;;;;;;-4.37;100.00;102084.91;7399451;19;20119;-44
2021/12/22 07:14:46;;;;;;;26.60;11.38;;;;;;;-4.29;100.00;102081.72;7392635;19;20197;-45
2021/12/22 07:17:16;;;;;;;20.33;10.05;;;;;;;-4.57;100.00;102079.94;7398137;19;20167;-45
2021/12/22 07:19:45;;;;;;;23.50;11.00;;;;;;;-4.81;100.00;102089.69;7392510;19;20185;-44
2021/12/22 07:22:15;;;;;;;23.35;10.73;;;;;;;-4.89;100.00;102085.28;7399050;19;20123;-44
2021/12/22 07:24:47;;;;;;;24.63;10.55;;;;;;;-5.04;100.00;102077.63;7391713;19;20193;-46
2021/12/22 07:27:16;;;;;;;26.98;11.45;;;;;;;-4.89;100.00;102080.25;7397326;19;20159;-45
2021/12/22 07:29:45;;;;;;;30.88;11.25;;;;;;;-4.59;100.00;102082.25;7392442;19;20579;-44
2021/12/22 07:32:15;;;;;;;30.23;12.30;;;;;;;-4.84;100.00;102076.69;7398705;19;20171;-42
2021/12/22 07:34:49;;;;;;;24.85;11.70;;;;;;;-5.39;100.00;102079.09;7392387;19;20182;-43
2021/12/22 07:37:25;;;;;;;35.17;14.30;;;;;;;-5.60;100.00;102077.28;7397609;19;20207;-44
2021/12/22 07:39:57;;;;;;;29.05;13.07;;;;;;;-5.42;100.00;102078.72;7391857;19;20241;-44
2021/12/22 07:42:27;;;;;;;28.85;11.45;;;;;;;-5.13;100.00;102073.94;7398765;19;20136;-44
2021/12/22 07:44:56;;;;;;;31.10;13.70;;;;;;;-5.18;100.00;102069.97;7392169;19;20234;-40
2021/12/22 07:47:26;;;;;;;39.20;14.10;;;;;;;-5.01;100.00;102075.47;7397107;19;20552;-44
2021/12/22 07:49:55;;;;;;;37.45;15.13;;;;;;;-4.88;100.00;102077.00;7391737;19;20241;-43
2021/12/22 07:52:27;;;;;;;36.53;13.60;;;;;;;-5.10;100.00;102075.94;7398412;19;20123;-45
2021/12/22 07:54:59;;;;;;;38.00;13.82;;;;;;;-4.81;100.00;102079.63;7391851;19;20254;-43
2021/12/22 07:57:29;;;;;;;40.33;15.45;;;;;;;-4.52;100.00;102074.75;7396867;19;20206;-48
2021/12/22 07:59:58;;;;;;;42.55;14.82;;;;;;;-4.89;100.00;102075.22;7395881;19;20303;-41
2021/12/22 08:02:28;;;;;;;69.25;25.85;;;;;;;-4.81;100.00;102074.56;7405688;19;20133;-48
2021/12/22 08:04:58;;;;;;;90.88;32.90;;;;;;;-4.41;100.00;102065.09;7398694;19;20186;-45
2021/12/22 08:07:27;;;;;;;75.93;28.15;;;;;;;-4.49;100.00;102071.69;7401925;19;20423;-41
2021/12/22 08:09:59;;;;;;;80.18;30.20;;;;;;;-4.15;100.00;102067.38;7398072;19;20258;-44
2021/12/22 08:12:28;;;;;;;66.82;25.40;;;;;;;-4.00;100.00;102065.81;7405572;19;20119;-44
2021/12/22 08:14:58;;;;;;;57.30;21.73;;;;;;;-3.89;100.00;102069.63;7398714;19;20816;-42
2021/12/22 08:17:30;;;;;;;53.58;20.17;;;;;;;-4.09;100.00;102068.13;7403432;19;20206;-43
2021/12/22 08:19:59;;;;;;;45.47;18.20;;;;;;;-3.96;100.00;102071.41;7398141;19;20540;-47
2021/12/22 08:22:29;;;;;;;66.70;23.88;;;;;;;-4.21;100.00;102070.94;7405921;19;20183;-46
2021/12/22 08:25:01;;;;;;;64.43;22.75;;;;;;;-4.32;100.00;102072.88;7397871;19;20258;-42
2021/12/22 08:27:31;;;;;;;66.25;24.38;;;;;;;-4.16;100.00;102073.13;7402128;19;20226;-42
2021/12/22 08:30:00;;;;;;;63.35;23.73;;;;;;;-4.67;100.00;102070.34;7401164;19;20198;-43
2021/12/22 08:32:30;;;;;;;56.15;19.90;;;;;;;-4.62;100.00;102071.78;7404667;19;20127;-44
2021/12/22 08:34:59;;;;;;;57.65;21.50;;;;;;;-4.96;100.00;102071.03;7397794;19;20301;-43
2021/12/22 08:40:17;;;;;;;39.63;15.13;;;;;;;-5.22;100.00;102083.78;7397451;19;20451;-44
2021/12/22 08:42:47;;;;;;;43.63;14.88;;;;;;;-5.50;100.00;102079.38;7404766;19;20186;-45
2021/12/22 08:45:17;;;;;;;48.33;17.55;;;;;;;-5.49;100.00;102066.97;7397795;19;20588;-43
2021/12/22 08:47:47;;;;;;;50.97;16.73;;;;;;;-5.49;100.00;102079.53;7401636;19;20162;-43
2021/12/22 08:50:18;;;;;;;41.75;16.00;;;;;;;-5.06;100.00;102063.97;7397436;19;20258;-47
2021/12/22 08:52:48;;;;;;;45.15;16.55;;;;;;;-5.49;100.00;102069.47;7404266;19;20207;-45
2021/12/22 08:55:20;;;;;;;40.08;15.60;;;;;;;-5.22;100.00;102076.22;7397709;19;20250;-43
2021/12/22 08:57:50;;;;;;;41.47;12.55;;;;;;;-5.67;100.00;102075.59;7402488;19;20159;-42
2021/12/22 09:00:19;;;;;;;36.88;12.85;;;;;;;-5.87;100.00;102071.44;7397269;19;20467;-42
2021/12/22 09:02:49;;;;;;;39.40;14.43;;;;;;;-5.53;100.00;102066.38;7403822;19;20174;-43
2021/12/22 09:05:20;;;;;;;38.05;14.88;;;;;;;-5.11;100.00;102067.50;7397004;19;20218;-43
2021/12/22 09:07:50;;;;;;;49.05;17.60;;;;;;;-4.97;100.00;102068.31;7401036;19;20181;-50
2021/12/22 09:10:22;;;;;;;41.40;15.30;;;;;;;-4.96;100.00;102070.13;7395031;19;20747;-44
2021/12/22 09:12:51;;;;;;;50.85;20.30;;;;;;;-4.85;100.00;102064.81;7403434;19;20120;-43
2021/12/22 09:15:21;;;;;;;34.53;12.77;;;;;;;-4.92;100.00;102065.66;7396165;19;20188;-46
2021/12/22 09:17:51;;;;;;;72.72;27.45;;;;;;;-5.07;100.00;102068.78;7402025;19;20564;-42
2021/12/22 09:20:21;;;;;;;36.28;13.88;;;;;;;-5.08;100.00;102072.03;7396486;19;20250;-44
2021/12/22 09:22:50;;;;;;;35.80;13.50;;;;;;;-5.29;100.00;102081.16;7402980;19;20135;-44
2021/12/22 09:25:22;;;;;;;64.05;21.55;;;;;;;-5.13;100.00;102086.53;7395376;19;20197;-44
2021/12/22 09:27:51;;;;;;;45.58;15.77;;;;;;;-5.17;100.00;102082.72;7400538;19;20158;-45
2021/12/22 09:30:21;;;;;;;43.03;16.15;;;;;;;-4.91;100.00;102085.09;7395079;19;20190;-44
2021/12/22 09:32:51;;;;;;;46.00;16.55;;;;;;;-4.66;100.00;102084.75;7402160;19;20127;-43
2021/12/22 09:35:21;;;;;;;44.92;17.45;;;;;;;-5.00;100.00;102081.44;7395515;19;20242;-42
2021/12/22 09:37:50;;;;;;;60.83;19.75;;;;;;;-4.89;100.00;102080.25;7400849;19;20163;-46
2021/12/22 09:40:22;;;;;;;82.28;22.40;;;;;;;-5.02;100.00;102081.22;7395869;19;20461;-44
2021/12/22 09:42:54;;;;;;;57.85;17.88;;;;;;;-5.13;100.00;102086.53;7401199;19;20183;-44
2021/12/22 09:45:25;;;;;;;45.00;17.10;;;;;;;-5.11;100.00;102094.28;7394941;19;20473;-42
2021/12/22 09:48:19;;;;;;;53.72;18.30;;;;;;;-5.10;100.00;102086.94;7399907;19;20160;-47
2021/12/22 09:50:54;;;;;;;39.78;12.95;;;;;;;-5.16;100.00;102089.59;7395327;19;20190;-43
2021/12/22 09:53:24;;;;;;;48.10;17.70;;;;;;;-5.16;100.00;102088.66;7402093;19;20133;-42
2021/12/22 09:55:58;;;;;;;41.25;16.15;;;;;;;-5.16;100.00;102083.63;7394700;19;20197;-42
2021/12/22 09:58:29;;;;;;;43.83;16.58;;;;;;;-5.24;100.00;102080.16;7400200;19;20155;-44
2021/12/22 10:00:59;;;;;;;34.90;11.95;;;;;;;-5.35;100.00;102078.78;7395161;19;20193;-43
2021/12/22 10:03:29;;;;;;;48.40;17.30;;;;;;;-5.19;100.00;102074.09;7401611;19;20119;-43
2021/12/22 10:05:58;;;;;;;45.85;16.70;;;;;;;-5.17;100.00;102072.66;7393964;19;20190;-50
2021/12/22 10:08:29;;;;;;;39.55;14.00;;;;;;;-5.17;100.00;102072.66;7399262;19;20158;-42
2021/12/22 10:11:09;;;;;;;47.40;16.13;;;;;;;-4.94;100.00;102061.13;7395126;19;20193;-44
2021/12/22 10:13:44;;;;;;;45.33;15.88;;;;;;;-5.24;100.00;102066.69;7401502;19;20201;-42
2021/12/22 10:16:16;;;;;;;53.17;19.00;;;;;;;-5.30;100.00;102062.66;7393112;19;20182;-41
2021/12/22 10:18:46;;;;;;;43.75;15.38;;;;;;;-5.23;100.00;102060.94;7399361;19;20163;-43
2021/12/22 10:21:18;;;;;;;46.35;15.90;;;;;;;-5.14;100.00;102057.03;7393533;19;20186;-45
2021/12/22 10:23:50;;;;;;;58.28;18.73;;;;;;;-4.86;100.00;102055.47;7400584;19;20167;-43
2021/12/22 10:26:24;;;;;;;56.60;18.80;;;;;;;-4.91;100.00;102059.03;7395490;19;20512;-46
2021/12/22 10:28:54;;;;;;;46.17;16.52;;;;;;;-4.87;100.00;102056.19;7401060;19;20127;-43
2021/12/22 10:31:28;;;;;;;47.88;16.65;;;;;;;-4.97;100.00;102051.59;7396981;19;20188;-46
2021/12/22 10:34:00;;;;;;;41.97;16.10;;;;;;;-4.72;100.00;102044.56;7400572;19;20179;-43
2021/12/22 10:36:31;;;;;;;42.65;16.15;;;;;;;-4.75;100.00;102040.06;7393214;19;20203;-51
2021/12/22 10:39:01;;;;;;;42.25;16.50;;;;;;;-4.67;100.00;102045.16;7400727;19;20123;-45
2021/12/22 10:41:35;;;;;;;41.85;14.18;;;;;;;-4.60;100.00;102040.16;7394207;19;20182;-43
2021/12/22 10:44:05;;;;;;;40.47;12.95;;;;;;;-4.70;100.00;102042.25;7400366;19;20119;-43
2021/12/22 10:46:35;;;;;;;45.88;15.02;;;;;;;-4.80;100.00;102046.16;7392857;19;20183;-44
2021/12/22 10:49:14;;;;;;;51.38;18.05;;;;;;;-4.82;100.00;102036.59;7400419;19;20119;-45
2021/12/22 10:51:46;;;;;;;41.25;16.90;;;;;;;-4.67;100.00;102042.63;7399483;19;20229;-45
2021/12/22 10:54:17;;;;;;;56.20;19.02;;;;;;;-4.53;100.00;102037.66;7399906;19;20210;-46
2021/12/22 10:56:50;;;;;;;48.88;18.77;;;;;;;-4.41;100.00;102028.19;7398217;19;20258;-44
2021/12/22 10:59:21;;;;;;;51.63;17.40;;;;;;;-4.65;100.00;102037.06;7394032;19;20187;-50
2021/12/22 11:02:06;;;;;;;44.70;16.75;;;;;;;-4.61;100.00;102028.28;7399836;19;20115;-44
2021/12/22 11:04:37;;;;;;;58.92;19.50;;;;;;;-4.58;100.00;102032.78;7393747;19;20123;-45
2021/12/22 11:07:12;;;;;;;52.35;18.65;;;;;;;-4.27;100.00;102022.31;7398590;19;20210;-43
2021/12/22 11:09:41;;;;;;;63.28;19.40;;;;;;;-4.04;100.00;102019.16;7392868;19;20247;-47
2021/12/22 11:12:16;;;;;;;51.35;18.33;;;;;;;-4.29;100.00;102022.84;7399348;19;20186;-45
2021/12/22 11:14:48;;;;;;;53.75;18.77;;;;;;;-4.37;100.00;102024.41;7393025;19;20194;-45
2021/12/22 11:17:21;;;;;;;53.05;19.30;;;;;;;-4.07;100.00;102024.72;7398379;19;20158;-45
2021/12/22 11:19:54;;;;;;;47.53;18.88;;;;;;;-4.01;100.00;102017.00;7392620;19;20190;-46
2021/12/22 11:22:36;;;;;;;53.00;18.73;;;;;;;-4.11;100.00;102021.66;7399020;19;20129;-44
2021/12/22 11:25:11;;;;;;;48.42;19.25;;;;;;;-3.86;100.00;102011.97;7392986;19;20186;-44
2021/12/22 11:27:46;;;;;;;60.78;20.50;;;;;;;-3.68;100.00;102009.13;7397372;19;20178;-45